Time;durP1;ratioP1;P1;durP2;ratioP2;P2;SDS_P1;SDS_P2;PMS_P1;PMS_P2;Temp;Humidity;BMP_temperature;BMP_pressure;BME280_temperature;BME280_humidity;BME280_pressure;Samples;Min_cycle;Max_cycle;Signal;HPM_P1;HPM_P2
2022/10/18 00:01:20;;;;;;;71.78;47.40;;;;;;;15.71;100.00;100974.28;5073186;28;20035;-88
2022/10/18 00:03:45;;;;;;;72.63;47.88;;;;;;;15.75;100.00;100974.81;5072322;28;20028;-89
2022/10/18 00:06:11;;;;;;;71.38;48.25;;;;;;;15.73;100.00;100972.28;5071789;28;20033;-90
2022/10/18 00:08:37;;;;;;;74.50;46.63;;;;;;;15.77;100.00;100972.88;5074050;28;20026;-93
2022/10/18 00:11:04;;;;;;;69.03;46.28;;;;;;;15.81;100.00;100969.78;5077878;28;20065;-94
2022/10/18 00:13:29;;;;;;;76.95;47.85;;;;;;;15.84;100.00;100968.66;5057515;28;20044;-91
2022/10/18 00:15:59;;;;;;;75.13;48.00;;;;;;;15.82;100.00;100968.81;5054708;28;20033;-91
2022/10/18 00:18:25;;;;;;;73.68;48.33;;;;;;;15.76;100.00;100969.38;5073810;28;20032;-91
2022/10/18 00:21:01;;;;;;;72.90;47.10;;;;;;;15.73;100.00;100972.28;5068659;28;20040;-88
2022/10/18 00:23:28;;;;;;;71.68;46.22;;;;;;;15.73;100.00;100966.97;5071477;28;20033;-91
2022/10/18 00:26:06;;;;;;;70.55;46.70;;;;;;;15.73;100.00;100961.66;5074570;28;20043;-91
2022/10/18 00:28:33;;;;;;;69.30;45.25;;;;;;;15.68;100.00;100961.25;5072060;28;20028;-90
2022/10/18 00:31:15;;;;;;;69.55;46.28;;;;;;;15.61;100.00;100952.13;5040121;28;20415;-89
2022/10/18 00:33:43;;;;;;;71.03;45.35;;;;;;;15.50;100.00;100957.56;5069925;28;20392;-91
2022/10/18 00:36:09;;;;;;;69.22;46.63;;;;;;;15.48;100.00;100959.56;5059423;28;20037;-89
2022/10/18 00:38:36;;;;;;;69.25;45.95;;;;;;;15.47;100.00;100955.22;5071958;28;20515;-89
2022/10/18 00:41:02;;;;;;;75.63;45.30;;;;;;;15.39;100.00;100952.41;5057568;28;20037;-89
2022/10/18 00:43:27;;;;;;;75.18;47.42;;;;;;;15.33;100.00;100953.78;5046693;28;20049;-87
2022/10/18 00:45:53;;;;;;;73.93;45.60;;;;;;;15.22;100.00;100950.44;5061879;28;20370;-89
2022/10/18 00:48:19;;;;;;;74.07;46.75;;;;;;;15.14;100.00;100946.63;5053655;28;20116;-88
2022/10/18 00:50:47;;;;;;;72.15;46.78;;;;;;;15.12;100.00;100940.63;5045488;28;20484;-86
2022/10/18 00:53:16;;;;;;;73.20;47.60;;;;;;;15.03;100.00;100936.13;5049534;28;20035;-87
2022/10/18 00:55:42;;;;;;;76.07;48.53;;;;;;;15.07;100.00;100937.56;5044721;28;20033;-86
2022/10/18 00:58:09;;;;;;;77.93;48.55;;;;;;;15.12;100.00;100930.00;5048479;28;20481;-86
2022/10/18 01:00:38;;;;;;;84.70;50.58;;;;;;;15.03;100.00;100928.16;5062920;28;20033;-86
2022/10/18 01:03:04;;;;;;;84.20;50.42;;;;;;;14.93;100.00;100937.94;5048676;28;20025;-86
2022/10/18 01:05:30;;;;;;;79.07;50.90;;;;;;;15.01;100.00;100927.47;5044902;28;20038;-86
2022/10/18 01:08:17;;;;;;;79.45;49.75;;;;;;;15.06;100.00;100933.22;5051486;28;20040;-87
2022/10/18 01:10:58;;;;;;;79.90;49.30;;;;;;;15.17;100.00;100937.56;5062830;28;20033;-86
2022/10/18 01:13:38;;;;;;;75.25;50.03;;;;;;;15.26;100.00;100935.88;5062890;28;20127;-87
2022/10/18 01:16:26;;;;;;;76.30;48.17;;;;;;;15.10;100.00;100941.75;5049433;28;20546;-92
2022/10/18 01:19:05;;;;;;;79.55;49.60;;;;;;;15.02;100.00;100938.94;5060591;28;20036;-93
2022/10/18 01:21:54;;;;;;;77.35;50.10;;;;;;;15.10;100.00;100939.94;5021985;28;20083;-90
2022/10/18 01:24:44;;;;;;;83.90;51.53;;;;;;;15.09;100.00;100927.59;5061659;28;20078;-91
2022/10/18 01:27:16;;;;;;;82.57;50.88;;;;;;;15.15;100.00;100929.72;5047933;28;20049;-90
2022/10/18 01:30:01;;;;;;;81.80;50.90;;;;;;;15.01;100.00;100926.63;5051724;28;20037;-91
2022/10/18 01:32:37;;;;;;;82.55;51.10;;;;;;;15.05;100.00;100933.34;5057702;28;20040;-89
2022/10/18 01:35:16;;;;;;;80.20;49.47;;;;;;;15.08;100.00;100931.25;5045914;28;20129;-90
2022/10/18 01:37:46;;;;;;;75.35;50.00;;;;;;;15.12;100.00;100930.00;5058395;28;20033;-92
2022/10/18 01:40:14;;;;;;;78.75;48.25;;;;;;;15.11;100.00;100938.09;5069422;28;20060;-91
2022/10/18 01:42:39;;;;;;;77.70;48.72;;;;;;;15.06;100.00;100930.56;5079643;28;20064;-90
2022/10/18 01:45:07;;;;;;;81.20;49.90;;;;;;;14.97;100.00;100928.72;5077637;28;20028;-89
2022/10/18 01:47:34;;;;;;;77.70;49.22;;;;;;;14.70;100.00;100928.53;5066633;28;20033;-91
2022/10/18 01:50:01;;;;;;;83.53;50.20;;;;;;;14.68;100.00;100925.16;5075144;28;20039;-90
2022/10/18 01:52:27;;;;;;;76.93;49.25;;;;;;;14.58;100.00;100929.59;5070727;28;20029;-88
2022/10/18 01:54:54;;;;;;;79.07;48.42;;;;;;;14.64;100.00;100929.06;5072166;28;20040;-87
2022/10/18 01:57:30;;;;;;;80.35;49.10;;;;;;;14.72;100.00;100926.59;5065117;28;20035;-88
2022/10/18 02:00:02;;;;;;;84.93;49.47;;;;;;;14.70;100.00;100923.22;5065453;28;20052;-89
2022/10/18 02:02:41;;;;;;;76.88;48.78;;;;;;;14.75;100.00;100923.63;5069212;28;20055;-89
2022/10/18 02:05:21;;;;;;;88.47;50.78;;;;;;;14.73;100.00;100923.75;5069472;28;20038;-90
2022/10/18 02:08:17;;;;;;;79.63;50.20;;;;;;;14.71;100.00;100922.25;5065462;28;20032;-89
2022/10/18 02:10:48;;;;;;;77.07;50.20;;;;;;;14.72;100.00;100922.09;5067363;28;20388;-89
2022/10/18 02:13:19;;;;;;;73.90;49.25;;;;;;;14.75;100.00;100915.66;5039539;28;20439;-90
2022/10/18 02:16:00;;;;;;;78.15;49.17;;;;;;;14.63;100.00;100914.09;5071147;28;20029;-91
2022/10/18 02:18:33;;;;;;;71.25;45.92;;;;;;;14.81;100.00;100915.13;5073003;28;20044;-88
2022/10/18 02:21:01;;;;;;;71.50;46.78;;;;;;;14.73;100.00;100918.44;5068946;28;20036;-90
2022/10/18 02:23:27;;;;;;;73.72;47.05;;;;;;;14.74;100.00;100913.97;5071221;28;20082;-88
2022/10/18 02:25:53;;;;;;;72.88;46.08;;;;;;;14.71;100.00;100919.59;5072169;28;20079;-89
2022/10/18 02:28:19;;;;;;;75.32;45.17;;;;;;;14.53;100.00;100921.22;5072158;28;20033;-92
2022/10/18 02:31:05;;;;;;;72.28;46.92;;;;;;;14.50;100.00;100921.47;5077580;28;20043;-89
2022/10/18 02:33:37;;;;;;;67.95;44.08;;;;;;;14.51;100.00;100912.53;5054064;28;20040;-88
2022/10/18 02:36:08;;;;;;;69.97;44.88;;;;;;;14.56;100.00;100908.47;5074961;28;20092;-88
2022/10/18 02:38:34;;;;;;;73.13;46.40;;;;;;;14.63;100.00;100911.44;5081947;28;20040;-89
2022/10/18 02:41:00;;;;;;;76.32;46.28;;;;;;;14.64;100.00;100902.50;5079813;28;20021;-87
2022/10/18 02:43:25;;;;;;;77.78;46.97;;;;;;;14.59;100.00;100905.56;5079601;22;20344;-77
2022/10/18 02:45:51;;;;;;;75.10;46.60;;;;;;;14.49;100.00;100910.00;5083095;28;20476;-79
2022/10/18 02:48:17;;;;;;;77.10;48.83;;;;;;;14.54;100.00;100906.94;5065929;28;20044;-78
2022/10/18 02:50:42;;;;;;;80.22;49.53;;;;;;;14.58;100.00;100903.88;5086427;28;20046;-79
2022/10/18 02:53:07;;;;;;;79.93;50.20;;;;;;;14.59;100.00;100905.56;5085480;28;20460;-80
2022/10/18 02:55:33;;;;;;;81.55;49.10;;;;;;;14.61;100.00;100900.09;5065496;28;20081;-79
2022/10/18 02:57:58;;;;;;;75.07;49.03;;;;;;;14.63;100.00;100900.81;5088134;28;20032;-78
2022/10/18 03:00:24;;;;;;;80.38;49.72;;;;;;;14.67;100.00;100902.22;5082222;28;20033;-78
2022/10/18 03:02:49;;;;;;;73.80;47.97;;;;;;;14.64;100.00;100907.81;5087110;28;20060;-76
2022/10/18 03:05:15;;;;;;;77.38;48.25;;;;;;;14.55;100.00;100908.63;5084344;28;20042;-78
2022/10/18 03:07:40;;;;;;;76.60;46.78;;;;;;;14.55;100.00;100913.94;5086026;28;20028;-80
2022/10/18 03:10:06;;;;;;;73.97;46.38;;;;;;;14.42;100.00;100908.03;5089913;28;20527;-80
2022/10/18 03:12:31;;;;;;;75.47;47.25;;;;;;;14.43;100.00;100904.41;5071724;28;20043;-80
2022/10/18 03:14:57;;;;;;;71.55;47.90;;;;;;;14.45;100.00;100913.06;5096463;28;20050;-80
2022/10/18 03:17:22;;;;;;;74.63;46.70;;;;;;;14.32;100.00;100911.44;5088950;28;20078;-80
2022/10/18 03:19:48;;;;;;;72.05;45.28;;;;;;;14.29;100.00;100905.56;5075624;28;20039;-79
2022/10/18 03:22:13;;;;;;;76.35;45.20;;;;;;;14.23;100.00;100898.97;5091289;28;20383;-80
2022/10/18 03:24:39;;;;;;;73.85;46.13;;;;;;;14.30;100.00;100910.75;5094151;28;20473;-79
2022/10/18 03:27:05;;;;;;;75.63;46.88;;;;;;;14.28;100.00;100915.34;5091643;28;20395;-78
2022/10/18 03:29:30;;;;;;;71.30;45.90;;;;;;;14.19;100.00;100913.50;5089541;28;20127;-77
2022/10/18 03:31:55;;;;;;;73.35;46.92;;;;;;;14.14;100.00;100912.19;5094453;28;20059;-78
2022/10/18 03:34:21;;;;;;;76.60;48.63;;;;;;;14.13;100.00;100916.69;5088725;28;20040;-78
2022/10/18 03:36:46;;;;;;;76.97;46.97;;;;;;;14.13;100.00;100927.31;5092120;28;20336;-78
2022/10/18 03:39:12;;;;;;;71.90;47.00;;;;;;;14.13;100.00;100911.38;5092364;28;20032;-80
2022/10/18 03:41:37;;;;;;;72.18;46.22;;;;;;;14.11;100.00;100910.66;5091128;28;20021;-78
2022/10/18 03:44:03;;;;;;;75.47;47.47;;;;;;;14.10;100.00;100903.66;5091711;28;20032;-78
2022/10/18 03:46:28;;;;;;;72.50;46.40;;;;;;;14.08;100.00;100910.09;5068570;28;20340;-78
2022/10/18 03:48:54;;;;;;;75.75;48.40;;;;;;;14.16;100.00;100900.47;5094104;28;20068;-78
2022/10/18 03:51:19;;;;;;;69.50;46.38;;;;;;;14.18;100.00;100903.84;5091011;28;20541;-78
2022/10/18 03:53:45;;;;;;;75.78;47.25;;;;;;;14.07;100.00;100900.44;5094052;28;20062;-78
2022/10/18 03:56:10;;;;;;;72.10;46.15;;;;;;;14.04;100.00;100901.53;5092136;28;20400;-79
2022/10/18 03:58:35;;;;;;;80.22;49.28;;;;;;;13.87;100.00;100902.16;5090785;28;20078;-78
2022/10/18 04:01:01;;;;;;;79.32;48.70;;;;;;;13.82;100.00;100899.06;5092063;28;20086;-79
2022/10/18 04:03:27;;;;;;;75.43;46.75;;;;;;;13.89;100.00;100900.22;5089387;28;20016;-78
2022/10/18 04:05:52;;;;;;;77.25;47.22;;;;;;;13.89;100.00;100900.22;5092960;28;20093;-79
2022/10/18 04:08:18;;;;;;;72.88;47.88;;;;;;;13.90;100.00;100907.22;5091273;28;20115;-78
2022/10/18 04:10:43;;;;;;;75.80;47.95;;;;;;;13.87;100.00;100897.69;5091229;28;20019;-79
2022/10/18 04:13:09;;;;;;;88.32;52.42;;;;;;;13.95;100.00;100905.00;5092040;28;20039;-79
2022/10/18 04:15:35;;;;;;;78.28;48.92;;;;;;;14.03;100.00;100913.13;5091890;28;20028;-79
2022/10/18 04:18:01;;;;;;;73.90;47.00;;;;;;;13.84;100.00;100913.03;5091908;28;20020;-80
2022/10/18 04:20:27;;;;;;;79.00;48.63;;;;;;;13.65;100.00;100907.59;5088627;28;20400;-80
2022/10/18 04:22:56;;;;;;;79.40;48.55;;;;;;;13.49;100.00;100914.19;5089842;28;20028;-80
2022/10/18 04:25:22;;;;;;;75.70;47.58;;;;;;;13.64;100.00;100916.53;5087179;28;20048;-79
2022/10/18 04:27:48;;;;;;;76.07;46.13;;;;;;;13.63;100.00;100910.38;5088197;28;20040;-80
2022/10/18 04:30:13;;;;;;;74.45;44.80;;;;;;;13.58;100.00;100911.75;5088422;28;20038;-79
2022/10/18 04:32:39;;;;;;;66.22;45.25;;;;;;;13.56;100.00;100913.66;5087361;28;20032;-80
2022/10/18 04:35:05;;;;;;;71.65;45.53;;;;;;;13.52;100.00;100919.25;5088507;28;20369;-79
2022/10/18 04:37:31;;;;;;;69.35;43.63;;;;;;;13.44;100.00;100919.03;5088686;28;20020;-77
2022/10/18 04:39:57;;;;;;;68.20;44.05;;;;;;;13.45;100.00;100922.53;5084045;28;20039;-79
2022/10/18 04:42:22;;;;;;;59.00;42.92;;;;;;;13.39;100.00;100913.28;5089584;28;20115;-78
2022/10/18 04:44:48;;;;;;;63.28;43.50;;;;;;;13.51;100.00;100916.72;5083717;28;20726;-77
2022/10/18 04:47:14;;;;;;;58.33;42.28;;;;;;;13.62;100.00;100921.09;5088437;28;20040;-77
2022/10/18 04:49:39;;;;;;;68.22;45.38;;;;;;;13.69;100.00;100919.63;5090450;28;20064;-79
2022/10/18 04:52:05;;;;;;;61.85;44.80;;;;;;;13.67;100.00;100910.94;5085075;28;20074;-79
2022/10/18 04:54:30;;;;;;;57.45;42.42;;;;;;;13.57;100.00;100907.41;5054851;28;20024;-78
2022/10/18 04:56:55;;;;;;;58.97;43.83;;;;;;;13.45;100.00;100907.47;5085891;28;20056;-79
2022/10/18 04:59:21;;;;;;;58.58;43.78;;;;;;;13.16;100.00;100917.00;5092120;28;20385;-79
2022/10/18 05:01:46;;;;;;;56.95;43.10;;;;;;;13.13;100.00;100914.59;5086450;28;20115;-79
2022/10/18 05:04:12;;;;;;;59.80;44.50;;;;;;;13.22;100.00;100910.34;5086855;28;20048;-78
2022/10/18 05:06:37;;;;;;;55.75;41.30;;;;;;;13.10;100.00;100917.47;5090222;28;20036;-77
2022/10/18 05:09:03;;;;;;;58.15;43.80;;;;;;;13.20;100.00;100917.56;5084529;28;20480;-79
2022/10/18 05:11:28;;;;;;;57.38;42.65;;;;;;;13.11;100.00;100908.56;5089144;28;20117;-77
2022/10/18 05:13:54;;;;;;;60.50;45.08;;;;;;;13.24;100.00;100909.25;5063610;28;20032;-80
2022/10/18 05:16:19;;;;;;;61.72;44.83;;;;;;;13.22;100.00;100913.00;5088590;28;20043;-78
2022/10/18 05:18:45;;;;;;;66.22;45.58;;;;;;;12.93;100.00;100902.09;5090850;28;20020;-78
2022/10/18 05:21:12;;;;;;;71.20;46.72;;;;;;;12.93;100.00;100902.09;5068110;28;20462;-77
2022/10/18 05:23:38;;;;;;;73.05;47.80;;;;;;;13.00;100.00;100903.28;5090135;28;20032;-79
2022/10/18 05:26:05;;;;;;;68.53;46.00;;;;;;;13.09;100.00;100905.16;5084059;28;20403;-77
2022/10/18 05:28:32;;;;;;;71.85;46.50;;;;;;;13.18;100.00;100911.56;5067028;28;20028;-78
2022/10/18 05:31:02;;;;;;;71.45;46.60;;;;;;;13.21;100.00;100898.06;5085395;28;20036;-79
2022/10/18 05:33:28;;;;;;;71.32;45.85;;;;;;;13.27;100.00;100905.50;5088426;28;20028;-77
2022/10/18 05:35:54;;;;;;;63.28;44.47;;;;;;;13.31;100.00;100899.81;5086482;28;20039;-76
2022/10/18 05:38:20;;;;;;;68.40;44.90;;;;;;;13.38;100.00;100906.28;5065210;28;20515;-76
2022/10/18 05:40:45;;;;;;;68.45;44.95;;;;;;;13.38;100.00;100900.97;5090897;28;20062;-78
2022/10/18 05:43:11;;;;;;;70.25;46.15;;;;;;;13.24;100.00;100903.97;5068137;28;20047;-74
2022/10/18 05:45:36;;;;;;;66.63;47.03;;;;;;;13.20;100.00;100907.81;5087050;28;20039;-78
2022/10/18 05:48:03;;;;;;;64.75;45.20;;;;;;;13.05;100.00;100903.75;5085685;28;20071;-78
2022/10/18 05:50:29;;;;;;;58.60;43.15;;;;;;;13.02;100.00;100904.00;5085852;28;20047;-80
2022/10/18 05:52:56;;;;;;;55.92;42.42;;;;;;;13.04;100.00;100905.56;5067815;28;20032;-78
2022/10/18 05:55:22;;;;;;;57.90;43.47;;;;;;;12.92;100.00;100913.66;5085474;28;20040;-77
2022/10/18 05:57:50;;;;;;;62.20;45.65;;;;;;;12.96;100.00;100909.81;5086161;28;20364;-78
2022/10/18 06:00:19;;;;;;;60.92;43.30;;;;;;;13.04;100.00;100907.38;5086907;28;20032;-79
2022/10/18 06:02:44;;;;;;;60.38;44.78;;;;;;;13.03;100.00;100905.69;5083661;28;20159;-78
2022/10/18 06:05:10;;;;;;;62.00;44.78;;;;;;;12.97;100.00;100900.88;5089334;28;20135;-79
2022/10/18 06:07:35;;;;;;;66.70;46.38;;;;;;;12.89;100.00;100898.03;5085472;28;20032;-78
2022/10/18 06:10:01;;;;;;;69.82;46.75;;;;;;;13.07;100.00;100897.38;5087535;28;20070;-79
2022/10/18 06:12:26;;;;;;;78.03;49.15;;;;;;;13.02;100.00;100904.00;5086589;28;20193;-79
2022/10/18 06:14:51;;;;;;;88.20;50.20;;;;;;;12.75;100.00;100895.66;5083330;28;20069;-79
2022/10/18 06:17:17;;;;;;;76.80;49.67;;;;;;;12.78;100.00;100903.38;5089217;28;20032;-79
2022/10/18 06:19:43;;;;;;;71.72;48.05;;;;;;;12.87;100.00;100899.94;5083471;28;20029;-77
2022/10/18 06:22:09;;;;;;;76.10;50.33;;;;;;;12.99;100.00;100904.25;5088025;28;20117;-79
2022/10/18 06:24:35;;;;;;;70.53;49.83;;;;;;;13.08;100.00;100901.69;5086758;28;20138;-78
2022/10/18 06:27:07;;;;;;;66.40;46.13;;;;;;;13.18;100.00;100893.88;5081898;28;20104;-78
2022/10/18 06:29:32;;;;;;;63.08;44.22;;;;;;;13.07;100.00;100907.13;5082598;28;20033;-78
2022/10/18 06:31:57;;;;;;;64.00;45.85;;;;;;;13.16;100.00;100906.38;5090124;28;20403;-78
2022/10/18 06:34:23;;;;;;;60.97;43.72;;;;;;;13.30;100.00;100914.06;5070492;28;20044;-75
2022/10/18 06:36:48;;;;;;;65.55;45.30;;;;;;;13.33;100.00;100910.28;5085425;28;20024;-77
2022/10/18 06:39:14;;;;;;;66.25;45.15;;;;;;;13.45;100.00;100906.63;5090524;28;20645;-78
2022/10/18 06:41:39;;;;;;;65.13;45.25;;;;;;;13.47;100.00;100908.19;5085138;28;20035;-78
2022/10/18 06:44:17;;;;;;;67.38;45.47;;;;;;;13.59;100.00;100930.19;5066799;28;20044;-78
2022/10/18 06:46:44;;;;;;;66.68;45.97;;;;;;;13.58;100.00;100925.84;5064999;28;20070;-78
2022/10/18 06:49:11;;;;;;;64.55;45.50;;;;;;;13.53;100.00;100931.53;5087893;28;20094;-80
2022/10/18 06:51:36;;;;;;;66.63;46.60;;;;;;;13.22;100.00;100931.53;5085890;28;20094;-77
2022/10/18 06:54:03;;;;;;;75.50;48.45;;;;;;;13.20;100.00;100934.31;5068749;28;20032;-78
2022/10/18 06:56:28;;;;;;;69.65;46.50;;;;;;;13.12;100.00;100936.78;5067421;28;20031;-78
2022/10/18 06:58:54;;;;;;;71.35;47.00;;;;;;;13.23;100.00;100939.38;5065510;28;20085;-78
2022/10/18 07:01:20;;;;;;;70.03;47.53;;;;;;;13.26;100.00;100939.13;5085804;28;20468;-78
2022/10/18 07:03:47;;;;;;;72.80;47.22;;;;;;;13.25;100.00;100942.75;5064916;28;20040;-77
2022/10/18 07:06:17;;;;;;;62.70;45.75;;;;;;;13.38;100.00;100932.78;5088097;28;20047;-78
2022/10/18 07:08:43;;;;;;;69.28;47.50;;;;;;;13.49;100.00;100938.03;5064046;28;20033;-77
2022/10/18 07:11:15;;;;;;;67.38;46.97;;;;;;;13.58;100.00;100943.56;5065679;28;20036;-78
2022/10/18 07:13:41;;;;;;;71.80;47.35;;;;;;;13.53;100.00;100950.09;5088138;28;20028;-79
2022/10/18 07:16:08;;;;;;;69.95;46.17;;;;;;;13.61;100.00;100948.63;5087074;28;20098;-81
2022/10/18 07:18:39;;;;;;;68.63;46.25;;;;;;;13.62;100.00;100950.28;5089690;28;20060;-78
2022/10/18 07:21:07;;;;;;;71.30;47.65;;;;;;;13.61;100.00;100960.06;5070541;28;20054;-78
2022/10/18 07:23:34;;;;;;;70.82;46.03;;;;;;;13.77;100.00;100954.31;5088935;28;20031;-79
2022/10/18 07:26:03;;;;;;;72.35;47.92;;;;;;;13.82;100.00;100957.44;5084980;28;20028;-80
2022/10/18 07:28:29;;;;;;;70.00;47.42;;;;;;;13.74;100.00;100965.16;5089046;28;20383;-80
2022/10/18 07:30:55;;;;;;;73.28;48.55;;;;;;;13.83;100.00;100959.09;5088538;28;20103;-80
2022/10/18 07:33:20;;;;;;;74.75;49.45;;;;;;;13.92;100.00;100947.72;5089266;28;20356;-80
2022/10/18 07:35:46;;;;;;;74.68;48.38;;;;;;;13.96;100.00;100953.63;5090221;28;20395;-78
2022/10/18 07:38:12;;;;;;;73.68;48.65;;;;;;;14.10;100.00;100951.44;5069984;28;20037;-82
2022/10/18 07:40:38;;;;;;;76.65;51.45;;;;;;;14.13;100.00;100951.19;5063112;28;20036;-76
2022/10/18 07:43:03;;;;;;;79.75;50.65;;;;;;;14.23;100.00;100946.78;5074974;28;20469;-75
2022/10/18 07:45:29;;;;;;;74.65;49.08;;;;;;;14.31;100.00;100941.63;5079795;28;20135;-78
2022/10/18 07:47:55;;;;;;;76.50;48.28;;;;;;;14.35;100.00;100944.88;5070031;28;20032;-78
2022/10/18 07:50:22;;;;;;;78.68;50.72;;;;;;;14.41;100.00;100932.91;5071367;28;20037;-76
2022/10/18 07:52:47;;;;;;;76.50;52.35;;;;;;;14.49;100.00;100933.09;5067903;28;20028;-77
2022/10/18 07:55:13;;;;;;;77.20;50.20;;;;;;;14.58;100.00;100934.91;5067950;28;20082;-80
2022/10/18 07:57:38;;;;;;;71.20;48.15;;;;;;;14.64;100.00;100939.69;5071004;28;20056;-78
2022/10/18 08:00:05;;;;;;;69.50;47.58;;;;;;;14.76;100.00;100938.59;5055611;28;20102;-76
2022/10/18 08:02:37;;;;;;;74.65;47.38;;;;;;;14.88;100.00;100942.00;5083855;28;20348;-78
2022/10/18 08:05:02;;;;;;;72.38;47.88;;;;;;;14.95;100.00;100938.66;5075847;28;20088;-78
2022/10/18 08:07:28;;;;;;;75.43;47.63;;;;;;;15.01;100.00;100935.44;5041813;28;20124;-77
2022/10/18 08:09:54;;;;;;;69.80;46.40;;;;;;;15.08;100.00;100933.91;5067937;28;20435;-78
2022/10/18 08:12:19;;;;;;;68.82;46.00;;;;;;;15.09;100.00;100940.06;5072211;28;20036;-78
2022/10/18 08:14:45;;;;;;;67.15;45.97;;;;;;;15.11;100.00;100936.28;5073652;28;20036;-77
2022/10/18 08:17:11;;;;;;;68.55;45.95;;;;;;;15.10;100.00;100937.28;5066833;28;20140;-76
2022/10/18 08:19:36;;;;;;;67.60;45.35;;;;;;;15.13;100.00;100937.00;5069932;28;20115;-76
2022/10/18 08:22:02;;;;;;;63.28;45.97;;;;;;;15.22;100.00;100935.31;5072741;28;20031;-77
2022/10/18 08:24:27;;;;;;;68.30;45.90;;;;;;;15.25;100.00;100939.53;5074318;28;20024;-78
2022/10/18 08:26:53;;;;;;;75.55;51.33;;;;;;;15.24;100.00;100935.19;5056885;28;20377;-78
2022/10/18 08:29:18;;;;;;;74.60;50.70;;;;;;;15.31;100.00;100928.34;5084171;28;20426;-79
2022/10/18 08:31:43;;;;;;;75.95;51.35;;;;;;;15.40;100.00;100931.00;5058359;28;20432;-76
2022/10/18 08:34:09;;;;;;;78.40;53.17;;;;;;;15.46;100.00;100932.25;5066708;28;20090;-79
2022/10/18 08:36:36;;;;;;;75.82;51.70;;;;;;;15.59;100.00;100930.16;5067803;28;20064;-78
2022/10/18 08:39:02;;;;;;;75.10;51.22;;;;;;;15.66;100.00;100931.28;5071697;28;20037;-80
2022/10/18 08:41:36;;;;;;;73.95;51.00;;;;;;;15.71;100.00;100931.69;5072569;28;20098;-79
2022/10/18 08:44:23;;;;;;;72.18;49.47;;;;;;;15.81;100.00;100927.19;5071141;28;20036;-80
2022/10/18 08:47:13;;;;;;;75.72;49.13;;;;;;;15.90;100.00;100926.31;5090359;28;20043;-80
2022/10/18 08:49:54;;;;;;;77.50;50.20;;;;;;;16.04;100.00;100926.84;5090888;28;20024;-81
2022/10/18 08:52:31;;;;;;;74.38;51.17;;;;;;;16.09;100.00;100924.59;5087764;28;20036;-78
2022/10/18 08:55:12;;;;;;;76.55;51.63;;;;;;;16.16;100.00;100923.88;5068457;28;20032;-78
2022/10/18 08:57:38;;;;;;;71.47;49.90;;;;;;;16.24;100.00;100925.81;5069887;28;20040;-79
2022/10/18 09:00:17;;;;;;;73.18;50.67;;;;;;;16.34;100.00;100913.28;5086337;28;20016;-74
2022/10/18 09:02:54;;;;;;;73.22;49.53;;;;;;;16.42;100.00;100905.41;5084766;28;20036;-79
2022/10/18 09:05:37;;;;;;;76.05;49.70;;;;;;;16.47;100.00;100913.81;5085479;28;20036;-77
2022/10/18 09:08:35;;;;;;;74.20;49.47;;;;;;;16.51;100.00;100909.84;5089389;28;20040;-77
2022/10/18 09:11:35;;;;;;;71.13;49.38;;;;;;;16.59;100.00;100907.31;5073809;28;20105;-76
2022/10/18 09:14:31;;;;;;;74.88;50.90;;;;;;;16.63;100.00;100906.03;5091068;28;20119;-77
2022/10/18 09:17:34;;;;;;;76.88;50.55;;;;;;;16.74;100.00;100900.47;5086271;28;20043;-77
2022/10/18 09:20:05;;;;;;;65.93;46.30;;;;;;;16.85;100.00;100903.94;5090092;28;20028;-78
2022/10/18 09:22:58;;;;;;;68.55;49.00;;;;;;;16.91;100.00;100900.66;5087006;28;20056;-76
2022/10/18 09:25:46;;;;;;;68.22;48.47;;;;;;;17.01;100.00;100896.09;5088837;28;20050;-82
2022/10/18 09:28:41;;;;;;;72.20;49.53;;;;;;;17.11;100.00;100896.88;5088024;28;20129;-79
2022/10/18 09:31:16;;;;;;;77.40;50.95;;;;;;;17.21;100.00;100902.97;5084194;28;20591;-79
2022/10/18 09:33:52;;;;;;;72.72;51.15;;;;;;;17.24;100.00;100901.81;5087153;28;20535;-83
2022/10/18 09:36:25;;;;;;;72.60;49.28;;;;;;;17.28;100.00;100904.03;5088755;28;20032;-77
2022/10/18 09:38:54;;;;;;;70.38;50.28;;;;;;;17.36;100.00;100890.78;5062127;28;20058;-79
2022/10/18 09:41:36;;;;;;;76.70;52.55;;;;;;;17.45;100.00;100889.81;5088204;28;20463;-80
2022/10/18 09:44:40;;;;;;;72.53;49.15;;;;;;;17.51;100.00;100893.72;5083551;28;20069;-79
2022/10/18 09:47:17;;;;;;;76.90;51.50;;;;;;;17.49;100.00;100879.69;5080422;28;20059;-80
2022/10/18 09:49:46;;;;;;;65.60;46.30;;;;;;;17.53;100.00;100883.72;5083911;28;20117;-79
2022/10/18 09:52:20;;;;;;;71.65;48.75;;;;;;;17.57;100.00;100872.56;5083302;28;20092;-80
2022/10/18 09:54:54;;;;;;;68.18;46.95;;;;;;;17.67;100.00;100867.16;5085240;28;20028;-80
2022/10/18 09:57:22;;;;;;;72.82;48.88;;;;;;;17.72;100.00;100874.72;5084785;28;20047;-80
2022/10/18 09:59:49;;;;;;;69.40;48.90;;;;;;;17.76;100.00;100870.72;5086300;28;20032;-81
2022/10/18 10:02:21;;;;;;;72.57;49.38;;;;;;;17.81;100.00;100868.44;5086219;28;20028;-81
2022/10/18 10:04:47;;;;;;;70.40;49.13;;;;;;;17.91;100.00;100863.81;5087399;28;20035;-80
2022/10/18 10:07:18;;;;;;;69.25;47.22;;;;;;;18.00;100.00;100863.72;5086545;28;20043;-79
2022/10/18 10:09:55;;;;;;;70.07;49.17;;;;;;;18.09;100.00;100853.03;5086526;28;20376;-80
2022/10/18 10:12:27;;;;;;;75.20;48.05;;;;;;;18.13;100.00;100855.25;5086790;28;20028;-80
2022/10/18 10:14:53;;;;;;;67.38;48.50;;;;;;;18.19;100.00;100857.28;5084188;28;20020;-79
2022/10/18 10:17:28;;;;;;;72.85;47.08;;;;;;;18.25;100.00;100851.31;5067433;28;20442;-79
2022/10/18 10:19:53;;;;;;;76.18;50.30;;;;;;;18.32;100.00;100855.00;5084713;28;20046;-78
2022/10/18 10:22:27;;;;;;;74.00;49.63;;;;;;;18.40;100.00;100864.88;5084307;28;20116;-81
2022/10/18 10:24:53;;;;;;;66.18;47.92;;;;;;;18.45;100.00;100859.03;5067363;28;20384;-80
2022/10/18 10:27:57;;;;;;;73.53;48.60;;;;;;;18.52;100.00;100862.75;5082984;28;20032;-80
2022/10/18 10:30:29;;;;;;;74.95;47.97;;;;;;;18.60;100.00;100849.44;5075204;28;20075;-80
2022/10/18 10:32:56;;;;;;;71.78;48.83;;;;;;;18.65;100.00;100845.28;5084830;28;20474;-80
2022/10/18 10:35:27;;;;;;;72.07;48.22;;;;;;;18.71;100.00;100841.13;5087025;28;20043;-80
2022/10/18 10:37:53;;;;;;;79.93;51.90;;;;;;;18.78;100.00;100836.78;5086581;28;20070;-80
2022/10/18 10:40:40;;;;;;;82.28;50.30;;;;;;;18.85;100.00;100839.66;5088281;28;20097;-81
2022/10/18 10:43:08;;;;;;;82.57;52.45;;;;;;;18.93;100.00;100837.81;5082065;28;20102;-80
2022/10/18 10:45:42;;;;;;;74.05;50.13;;;;;;;18.98;100.00;100832.78;5086763;28;20059;-80
2022/10/18 10:48:15;;;;;;;77.00;51.65;;;;;;;19.03;100.00;100826.94;5086240;28;20040;-80
2022/10/18 10:51:03;;;;;;;79.07;50.42;;;;;;;19.11;100.00;100822.44;5085743;28;20388;-79
2022/10/18 10:53:38;;;;;;;77.45;52.05;;;;;;;19.18;100.00;100822.59;5083035;28;20029;-80
2022/10/18 10:56:05;;;;;;;78.32;51.65;;;;;;;19.25;100.00;100822.78;5081142;28;20028;-80
2022/10/18 10:58:38;;;;;;;79.95;51.90;;;;;;;19.32;100.00;100813.06;5086601;28;20440;-80
2022/10/18 11:01:25;;;;;;;82.00;51.80;;;;;;;19.42;100.00;100816.41;5081250;28;20050;-80
2022/10/18 11:03:54;;;;;;;76.30;49.72;;;;;;;19.51;100.00;100807.38;5083864;28;20492;-80
2022/10/18 11:06:36;;;;;;;80.18;52.13;;;;;;;19.60;100.00;100801.00;5087892;28;20047;-79
2022/10/18 11:09:08;;;;;;;80.38;50.70;;;;;;;19.67;100.00;100799.31;5081926;28;20504;-81
2022/10/18 11:11:45;;;;;;;80.00;50.88;;;;;;;19.79;100.00;100795.25;5082861;28;20056;-80
2022/10/18 11:14:25;;;;;;;75.70;48.75;;;;;;;19.85;100.00;100789.19;5084687;28;20501;-78